Latest Coastal Weather Observations for Ceduna

IDS60701

Issued at 11:21 am CDT Sunday 29 March 2015 (issued every 10 minutes, with the page automatically refreshed every 10 minutes)

About coastal observations | Map of coastal stations | Coastal observations for SA | Marine services | Other Formats
Station Details ID: 018012 Name: CEDUNA AMO Lat: -32.13 Lon: 133.70 Height: 15.3 m
Data from the previous 72 hours. | See also: Recent months at Ceduna
Date/Time
CDT
Temp

°C
Wind Pressure Rain
since 9am
mm
Weather Cloud Vis
km
Sea
Height
m
Swell
Dir
 
Speed
knots
Gust
knots
hPa Trend Height
m
Period
s
Dir
29/11:00am 24.8 NE 3 6 1022.8 - 0.0 - - 10 - - - -
29/10:30am 23.2 ENE 3 5 1022.9 - 0.0 - - 10 - - - -
29/10:00am 21.0 ESE 4 5 1022.9 - 0.0 - - 10 - - - -
29/09:30am 19.7 SE 5 7 1022.7 - 0.0 - Partly cloudy 10 - - - -
29/09:00am 17.0 SE 5 5 1022.2 R 0.0 - Partly cloudy 10 - - - -
29/08:30am 15.8 SE 2 3 1022.0 - 0.0 - Partly cloudy 10 - - - -
29/08:00am 15.7 SE 5 5 1021.4 - 0.0 - Partly cloudy 10 - - - -
29/07:30am 16.3 SSE 3 4 1021.1 - 0.0 - Partly cloudy 10 - - - -
29/07:00am 16.9 CALM 0 0 1020.8 - 0.0 - Partly cloudy 10 - - - -
29/06:30am 16.8 CALM 0 0 1020.6 - 0.0 - Partly cloudy 10 - - - -
29/06:00am 16.6 CALM 0 0 1020.1 F 0.0 - Cloudy 10 - - - -
29/05:30am 16.8 CALM 0 0 1020.3 - 0.0 - Cloudy 10 - - - -
29/05:00am 16.7 NNE 1 3 1020.3 - 0.0 - Cloudy 10 - - - -
29/04:30am 17.3 NNE 5 6 1020.2 - 0.0 - Partly cloudy 10 - - - -
29/04:00am 18.3 NE 3 4 1020.3 - 0.0 - Cloudy 10 - - - -
29/03:30am 18.3 NE 4 6 1020.3 - 0.0 - Cloudy 10 - - - -
29/03:00am 18.0 ESE 4 6 1020.5 R 0.0 - Cloudy 10 - - - -
29/02:30am 18.3 ENE 3 4 1020.9 - 0.0 - Partly cloudy 10 - - - -
29/02:00am 18.6 CALM 0 0 1021.0 - 0.0 - Partly cloudy 10 - - - -
29/01:30am 18.9 SSE 1 3 1021.0 - 0.0 - Partly cloudy 10 - - - -
29/01:00am 19.1 CALM 0 0 1021.3 - 0.0 - Partly cloudy 10 - - - -
29/12:30am 19.7 ENE 6 7 1021.1 - 0.0 - Cloudy 10 - - - -
29/12:00am 19.7 ENE 7 8 1021.3 F 0.0 - Cloudy 10 - - - -
 
Date/Time
CDT
Temp

°C
Wind Pressure Rain
since 9am
mm
Weather Cloud Vis
km
Sea
Height
m
Swell
Dir
 
Speed
knots
Gust
knots
hPa Trend Height
m
Period
s
Dir
28/11:30pm 19.5 ENE 6 7 1021.6 - 0.0 - Partly cloudy 10 - - - -
28/11:00pm 19.4 NE 3 4 1021.7 - 0.0 - Cloudy 10 - - - -
28/10:30pm 19.4 ENE 5 6 1021.3 - 0.0 - Cloudy 10 - - - -
28/10:00pm 19.5 ESE 5 6 1021.3 - 0.0 - Partly cloudy 10 - - - -
28/09:30pm 19.8 ESE 7 9 1021.0 - 0.0 - Partly cloudy 10 - - - -
28/09:00pm 20.0 SE 5 6 1021.0 F 0.0 - Cloudy 10 - - - -
28/08:30pm 20.4 SE 6 8 1020.5 - 0.0 - Cloudy 10 - - - -
28/08:00pm 20.7 SSE 6 7 1020.5 - 0.0 - Partly cloudy 10 - - - -
28/07:30pm 21.8 SSE 6 7 1020.5 - 0.0 - Cloudy 10 - - - -
28/07:00pm 22.4 SSE 5 6 1020.4 - 0.0 - Partly cloudy 10 - - - -
28/06:30pm 22.3 SE 4 6 1020.0 - 0.0 - Partly cloudy 10 - - - -
28/06:00pm 22.4 SSE 5 6 1020.3 R 0.0 - Cloudy 10 - - - -
28/05:30pm 22.1 S 6 7 1020.2 - 0.0 - Partly cloudy 10 - - - -
28/05:00pm 23.2 SW 5 7 1020.2 - 0.0 - Cloudy 10 - - - -
28/04:30pm 23.4 SSW 9 10 1020.0 - 0.0 - Cloudy 10 - - - -
28/04:00pm 24.2 WSW 4 7 1020.2 - 0.0 - Partly cloudy 10 - - - -
28/03:30pm 24.3 W 7 9 1020.3 - 0.0 - Partly cloudy 10 - - - -
28/03:00pm 24.0 W 8 11 1020.6 F 0.0 - Cloudy 10 - - - -
28/02:30pm 23.8 NW 8 11 1021.1 - 0.0 - Cloudy 10 - - - -
28/02:00pm 22.9 NNW 9 12 1021.4 - 0.0 - Cloudy 10 - - - -
28/01:30pm 22.1 N 10 14 1021.9 - 0.0 - Cloudy 10 - - - -
28/01:00pm 21.3 N 11 15 1022.1 - 0.0 - Cloudy 10 - - - -
28/12:30pm 20.7 N 13 15 1022.5 - 0.0 - Cloudy 10 - - - -
28/12:00pm 20.1 N 14 16 1022.9 F 0.0 - Mostly cloudy 10 - - - -
28/11:30am 18.9 NNE 12 16 1023.1 - 0.0 - Cloudy 10 - - - -
28/11:00am 17.8 NNE 11 15 1023.5 - 0.0 - Cloudy 10 - - - -
28/10:30am 17.1 NNE 11 17 1023.9 - 0.0 - - 10 - - - -
28/10:00am 16.8 NNE 10 14 1023.9 - 0.0 - - 10 - - - -
28/09:30am 15.5 NNE 8 10 1024.0 - 0.0 - - 10 - - - -
28/09:00am 14.0 NNE 5 6 1023.8 S 0.0 - Cloudy 10 - - - -
28/08:30am 12.9 NNE 6 8 1023.5 - 0.0 - - 10 - - - -
28/08:00am 12.9 NE 9 12 1023.1 - 0.0 - - 10 - - - -
28/07:30am 12.8 NE 9 11 1022.7 - 0.0 - - 10 - - - -
28/07:00am 11.2 ENE 9 10 1022.5 - 0.0 - - 10 - - - -
28/06:30am 10.8 ENE 9 11 1022.4 - 0.0 - - 10 - - - -
28/06:00am 10.6 ENE 8 10 1022.4 F 0.0 - Mostly cloudy 10 - - - -
28/05:30am 10.3 NE 5 6 1022.6 - 0.0 - - 10 - - - -
28/05:00am 9.1 ENE 5 7 1022.5 - 0.0 - - 10 - - - -
28/04:30am 8.5 E 4 5 1022.7 - 0.0 - - 10 - - - -
28/04:00am 8.7 NE 4 5 1023.2 - 0.0 - - 10 - - - -
28/03:30am 10.1 N 4 6 1023.6 - 0.0 - - 10 - - - -
28/03:00am 10.4 NNE 6 7 1023.8 F 0.0 - Partly cloudy 10 - - - -
28/02:30am 10.3 NE 5 6 1024.1 - 0.0 - - 10 - - - -
28/02:00am 10.1 NNE 2 4 1024.6 - 0.0 - - 10 - - - -
28/01:30am 11.0 NE 1 4 1024.9 - 0.0 - - 10 - - - -
28/01:00am 11.7 E 3 3 1025.0 - 0.0 - - 10 - - - -
28/12:30am 12.8 ESE 7 8 1025.1 - 0.0 - - 10 - - - -
28/12:00am 14.2 SE 8 10 1025.3 F 0.0 - - 10 - - - -
 
Date/Time
CDT
Temp

°C
Wind Pressure Rain
since 9am
mm
Weather Cloud Vis
km
Sea
Height
m
Swell
Dir
 
Speed
knots
Gust
knots
hPa Trend Height
m
Period
s
Dir
27/11:30pm 14.9 SE 7 9 1025.8 - 0.0 - - 10 - - - -
27/11:00pm 15.7 SE 11 13 1025.9 - 0.0 - - 10 - - - -
27/10:30pm 15.7 SSE 11 15 1025.7 - 0.0 - - 10 - - - -
27/10:00pm 15.8 SSE 11 15 1025.7 - 0.0 - - 10 - - - -
27/09:30pm 16.0 SSE 12 16 1025.2 - 0.0 - - 10 - - - -
27/09:00pm 16.4 SSE 12 17 1025.3 F 0.0 - Partly cloudy 10 - - - -
27/08:30pm 16.6 SSE 12 16 1025.2 - 0.0 - - 10 - - - -
27/08:00pm 16.7 SSE 13 17 1025.2 - 0.0 - - 10 - - - -
27/07:30pm 16.8 S 13 18 1025.3 - 0.0 - - 10 - - - -
27/07:00pm 17.0 S 15 20 1025.1 - 0.0 - - 10 - - - -
27/06:30pm 18.1 S 16 21 1025.0 - 0.0 - - 10 - - - -
27/06:00pm 18.2 S 16 21 1024.8 F 0.0 - - 10 - - - -
27/05:30pm 19.1 S 16 20 1024.8 - 0.0 - - 10 - - - -
27/05:00pm 18.9 S 16 20 1024.8 - 0.0 - - 10 - - - -
27/04:30pm 20.1 S 15 18 1025.2 - 0.0 - - 10 - - - -
27/04:00pm 19.9 S 15 19 1025.3 - 0.0 - - 10 - - - -
27/03:30pm 19.9 S 14 18 1025.5 - 0.0 - - 10 - - - -
27/03:00pm 19.8 SSW 16 20 1025.9 F 0.0 - - 10 - - - -
27/02:30pm 20.6 S 13 17 1026.6 - 0.0 - - 10 - - - -
27/02:00pm 20.5 SE 10 18 1027.1 - 0.0 - - 10 - - - -
27/01:30pm 20.5 ESE 9 14 1027.9 - 0.0 - - 10 - - - -
27/01:00pm 20.3 E 10 15 1028.6 - 0.0 - - 10 - - - -
27/12:30pm 20.0 ESE 8 15 1029.2 - 0.0 - - 10 - - - -
27/12:00pm 19.1 ESE 10 16 1029.5 F 0.0 - Mostly clear 10 - - - -
27/11:30am 18.6 ESE 11 17 1029.8 - 0.0 - - 10 - - - -
27/11:00am 18.7 E 11 14 1030.0 - 0.0 - - 10 - - - -
27/10:30am 17.6 ENE 12 15 1030.2 - 0.0 - - 10 - - - -
27/10:00am 16.5 ENE 11 13 1030.2 - 0.0 - - 10 - - - -
27/09:30am 14.8 ENE 9 11 1030.1 - 0.0 - - 10 - - - -
27/09:00am 11.7 ENE 7 9 1029.9 F 0.0 - - 10 - - - -
27/08:30am 7.8 ENE 8 9 1030.0 - 0.0 - - 10 - - - -
27/08:00am 5.9 NE 8 9 1030.0 - 0.0 - - 10 - - - -
27/07:30am 5.1 ENE 7 9 1029.9 - 0.0 - - 10 - - - -
27/07:00am 5.2 NE 7 7 1029.8 - 0.0 - - 10 - - - -
27/06:30am 5.8 ENE 8 9 1029.3 - 0.0 - - 10 - - - -
27/06:00am 5.6 NE 7 8 1029.3 F 0.0 - - 10 - - - -
27/05:30am 5.1 NE 7 8 1029.2 - 0.0 - - 10 - - - -
27/05:00am 5.2 ENE 6 7 1028.9 - 0.0 - - 10 - - - -
27/04:30am 5.7 ENE 5 6 1029.3 - 0.0 - - 10 - - - -
27/04:00am 5.5 ENE 5 6 1029.3 - 0.0 - - 10 - - - -
27/03:30am 6.7 ENE 6 10 1029.5 - 0.0 - - 10 - - - -
27/03:00am 6.3 E 7 8 1029.6 R 0.0 - - 10 - - - -
27/02:30am 7.6 E 6 7 1029.7 - 0.0 - - 10 - - - -
27/02:00am 7.9 ENE 6 8 1029.8 - 0.0 - - 10 - - - -
27/01:30am 8.3 ESE 7 8 1029.7 - 0.0 - - 10 - - - -
27/01:00am 8.4 ESE 8 9 1029.9 - 0.0 - - 10 - - - -
27/12:30am 9.9 ESE 7 9 1030.0 - 0.0 - - 10 - - - -
27/12:00am 11.4 SE 9 10 1030.1 S 0.0 - - 10 - - - -
 
Date/Time
CDT
Temp

°C
Wind Pressure Rain
since 9am
mm
Weather Cloud Vis
km
Sea
Height
m
Swell
Dir
 
Speed
knots
Gust
knots
hPa Trend Height
m
Period
s
Dir
26/11:30pm 11.0 SE 7 8 1030.4 - 0.0 - - 10 - - - -
26/11:00pm 10.6 SE 7 8 1030.4 - 0.0 - - 10 - - - -
26/10:30pm 12.6 SE 7 9 1030.3 - 0.0 - - 10 - - - -
26/10:00pm 13.9 SSE 8 9 1030.1 - 0.0 - - 10 - - - -
26/09:30pm 14.9 SSE 9 13 1030.0 - 0.0 - - 10 - - - -
26/09:00pm 15.1 SSE 9 12 1029.7 R 0.0 - - 10 - - - -
26/08:30pm 15.5 S 9 12 1029.4 - 0.0 - - 10 - - - -
26/08:00pm 15.8 S 10 13 1029.3 - 0.0 - - 10 - - - -
26/07:30pm 16.4 S 12 16 1029.1 - 0.0 - - 10 - - - -
26/07:00pm 17.2 SSE 14 17 1028.8 - 0.0 - - 10 - - - -
26/06:30pm 17.5 S 15 20 1028.5 - 0.0 - - 10 - - - -
26/06:00pm 17.9 S 16 20 1028.3 S 0.0 - - 10 - - - -
26/05:30pm 18.4 S 14 20 1028.4 - 0.0 - - 10 - - - -
26/05:00pm 18.2 S 13 17 1028.7 - 0.0 - - 10 - - - -
26/04:30pm 19.2 S 13 17 1028.6 - 0.0 - Partly cloudy 10 - - - -
26/04:00pm 18.8 SSW 14 20 1028.6 - 0.0 - - 10 - - - -
26/03:30pm 19.4 S 13 18 1028.6 - 0.0 - - 10 - - - -
26/03:00pm 19.5 S 13 18 1028.9 R 0.0 - - 10 - - - -
26/02:30pm 19.2 SSW 12 18 1029.1 - 0.0 - Partly cloudy 10 - - - -
26/02:00pm 18.7 S 9 15 1029.4 - 0.0 - - 10 - - - -
26/01:30pm 18.1 S 9 15 1029.7 - 0.0 - Partly cloudy - - - - -
26/01:00pm 17.2 S 6 8 1030.0 - 0.0 - Partly cloudy - - - - -
26/12:30pm 17.0 SSE 8 11 1030.3 - 0.0 - Partly cloudy - - - - -
26/12:00pm 17.4 SSW 7 10 1030.1 R 0.0 - Cloudy - - - - -
26/11:30am 17.8 S 8 13 1029.8 - 0.0 - Partly cloudy - - - - -

Other Formats:

Comma delimited format used in spreadsheet applications
http://www.bom.gov.au/fwo/IDS60701/IDS60701.94653.axf

JavaScript Object Notation format (JSON) in row-major order
http://www.bom.gov.au/fwo/IDS60701/IDS60701.94653.json